sensor_id;sensor_type;location;lat;lon;timestamp;pressure;altitude;pressure_sealevel;temperature;humidity
31771;BME280;18343;50.152;8.182;2023-05-23T00:00:45;97365.47;;;18.54;100.00
31771;BME280;18343;50.152;8.182;2023-05-23T00:03:29;97366.88;;;18.56;100.00
31771;BME280;18343;50.152;8.182;2023-05-23T00:06:18;97360.97;;;18.59;100.00
31771;BME280;18343;50.152;8.182;2023-05-23T00:09:03;97365.72;;;18.52;100.00
31771;BME280;18343;50.152;8.182;2023-05-23T00:11:49;97360.50;;;18.51;100.00
31771;BME280;18343;50.152;8.182;2023-05-23T00:14:33;97370.09;;;18.53;100.00
31771;BME280;18343;50.152;8.182;2023-05-23T00:17:21;97364.88;;;18.52;100.00
31771;BME280;18343;50.152;8.182;2023-05-23T00:20:07;97372.56;;;18.55;100.00
31771;BME280;18343;50.152;8.182;2023-05-23T00:22:52;97361.91;;;18.53;100.00
31771;BME280;18343;50.152;8.182;2023-05-23T00:25:36;97364.09;;;18.40;100.00
31771;BME280;18343;50.152;8.182;2023-05-23T00:28:22;97369.66;;;18.45;100.00
31771;BME280;18343;50.152;8.182;2023-05-23T00:31:07;97365.13;;;18.50;100.00
31771;BME280;18343;50.152;8.182;2023-05-23T00:33:51;97364.09;;;18.40;100.00
31771;BME280;18343;50.152;8.182;2023-05-23T00:36:36;97365.84;;;18.29;100.00
31771;BME280;18343;50.152;8.182;2023-05-23T00:39:21;97366.47;;;18.36;100.00
31771;BME280;18343;50.152;8.182;2023-05-23T00:42:06;97371.44;;;18.11;100.00
31771;BME280;18343;50.152;8.182;2023-05-23T00:44:52;97379.50;;;18.34;100.00
31771;BME280;18343;50.152;8.182;2023-05-23T00:47:38;97379.72;;;18.44;100.00
31771;BME280;18343;50.152;8.182;2023-05-23T00:50:23;97379.09;;;18.54;100.00
31771;BME280;18343;50.152;8.182;2023-05-23T00:53:08;97387.59;;;18.57;100.00
31771;BME280;18343;50.152;8.182;2023-05-23T00:55:53;97386.44;;;18.53;100.00
31771;BME280;18343;50.152;8.182;2023-05-23T00:58:40;97383.72;;;18.53;100.00
31771;BME280;18343;50.152;8.182;2023-05-23T01:01:26;97383.50;;;18.43;100.00
31771;BME280;18343;50.152;8.182;2023-05-23T01:04:29;97391.56;;;18.38;100.00
31771;BME280;18343;50.152;8.182;2023-05-23T01:07:14;97388.47;;;18.46;100.00
31771;BME280;18343;50.152;8.182;2023-05-23T01:10:01;97381.22;;;18.52;100.00
31771;BME280;18343;50.152;8.182;2023-05-23T01:13:05;97388.81;;;18.50;100.00
31771;BME280;18343;50.152;8.182;2023-05-23T01:16:01;97385.50;;;18.48;100.00
31771;BME280;18343;50.152;8.182;2023-05-23T01:18:55;97387.13;;;18.32;100.00
31771;BME280;18343;50.152;8.182;2023-05-23T01:21:43;97385.22;;;18.04;100.00
31771;BME280;18343;50.152;8.182;2023-05-23T01:24:36;97382.56;;;18.09;100.00
31771;BME280;18343;50.152;8.182;2023-05-23T01:27:46;97374.22;;;17.99;100.00
31771;BME280;18343;50.152;8.182;2023-05-23T01:30:35;97386.75;;;18.00;100.00
31771;BME280;18343;50.152;8.182;2023-05-23T01:33:23;97378.97;;;17.92;100.00
31771;BME280;18343;50.152;8.182;2023-05-23T01:36:11;97373.41;;;17.87;100.00
31771;BME280;18343;50.152;8.182;2023-05-23T01:38:56;97377.19;;;17.86;100.00
31771;BME280;18343;50.152;8.182;2023-05-23T01:41:40;97378.44;;;17.67;100.00
31771;BME280;18343;50.152;8.182;2023-05-23T01:44:27;97375.22;;;17.58;100.00
31771;BME280;18343;50.152;8.182;2023-05-23T01:47:12;97378.56;;;17.48;100.00
31771;BME280;18343;50.152;8.182;2023-05-23T01:49:58;97370.03;;;17.33;100.00
31771;BME280;18343;50.152;8.182;2023-05-23T01:52:45;97374.41;;;16.99;100.00
31771;BME280;18343;50.152;8.182;2023-05-23T01:55:30;97381.84;;;17.04;100.00
31771;BME280;18343;50.152;8.182;2023-05-23T01:58:15;97386.69;;;17.02;100.00
31771;BME280;18343;50.152;8.182;2023-05-23T02:01:01;97383.28;;;16.95;100.00
31771;BME280;18343;50.152;8.182;2023-05-23T02:03:46;97390.59;;;16.94;100.00
31771;BME280;18343;50.152;8.182;2023-05-23T02:06:31;97385.47;;;16.74;100.00
31771;BME280;18343;50.152;8.182;2023-05-23T02:09:16;97386.16;;;16.70;100.00
31771;BME280;18343;50.152;8.182;2023-05-23T02:12:00;97390.44;;;16.66;100.00
31771;BME280;18343;50.152;8.182;2023-05-23T02:14:45;97402.34;;;16.65;100.00
31771;BME280;18343;50.152;8.182;2023-05-23T02:17:31;97398.06;;;16.69;100.00
31771;BME280;18343;50.152;8.182;2023-05-23T02:20:16;97404.97;;;16.53;100.00
31771;BME280;18343;50.152;8.182;2023-05-23T02:23:01;97407.00;;;16.57;100.00
31771;BME280;18343;50.152;8.182;2023-05-23T02:25:45;97406.88;;;16.52;100.00
31771;BME280;18343;50.152;8.182;2023-05-23T02:28:30;97410.28;;;16.48;100.00
31771;BME280;18343;50.152;8.182;2023-05-23T02:31:14;97416.22;;;16.56;100.00
31771;BME280;18343;50.152;8.182;2023-05-23T02:34:00;97420.81;;;16.56;100.00
31771;BME280;18343;50.152;8.182;2023-05-23T02:36:45;97411.19;;;16.42;100.00
31771;BME280;18343;50.152;8.182;2023-05-23T02:39:30;97415.44;;;16.38;100.00
31771;BME280;18343;50.152;8.182;2023-05-23T02:42:14;97422.84;;;16.31;100.00
31771;BME280;18343;50.152;8.182;2023-05-23T02:44:59;97426.00;;;16.28;100.00
31771;BME280;18343;50.152;8.182;2023-05-23T02:47:44;97435.72;;;16.35;100.00
31771;BME280;18343;50.152;8.182;2023-05-23T02:50:29;97432.56;;;16.38;100.00
31771;BME280;18343;50.152;8.182;2023-05-23T02:53:18;97443.53;;;16.43;100.00
31771;BME280;18343;50.152;8.182;2023-05-23T02:56:03;97436.44;;;16.42;100.00
31771;BME280;18343;50.152;8.182;2023-05-23T02:58:48;97440.69;;;16.38;100.00
31771;BME280;18343;50.152;8.182;2023-05-23T03:01:34;97443.13;;;16.28;100.00
31771;BME280;18343;50.152;8.182;2023-05-23T03:04:19;97454.69;;;16.05;100.00
31771;BME280;18343;50.152;8.182;2023-05-23T03:07:05;97446.31;;;16.07;100.00
31771;BME280;18343;50.152;8.182;2023-05-23T03:09:51;97445.88;;;16.10;100.00
31771;BME280;18343;50.152;8.182;2023-05-23T03:12:35;97436.44;;;15.94;100.00
31771;BME280;18343;50.152;8.182;2023-05-23T03:15:20;97447.22;;;15.82;100.00
31771;BME280;18343;50.152;8.182;2023-05-23T03:18:05;97443.38;;;15.72;100.00
31771;BME280;18343;50.152;8.182;2023-05-23T03:20:50;97437.44;;;15.81;100.00
31771;BME280;18343;50.152;8.182;2023-05-23T03:23:37;97441.25;;;15.74;100.00
31771;BME280;18343;50.152;8.182;2023-05-23T03:26:23;97441.44;;;15.79;100.00
31771;BME280;18343;50.152;8.182;2023-05-23T03:29:07;97442.53;;;15.89;100.00
31771;BME280;18343;50.152;8.182;2023-05-23T03:31:52;97438.88;;;15.84;100.00
31771;BME280;18343;50.152;8.182;2023-05-23T03:34:39;97453.72;;;15.81;100.00
31771;BME280;18343;50.152;8.182;2023-05-23T03:37:23;97461.69;;;15.95;100.00
31771;BME280;18343;50.152;8.182;2023-05-23T03:40:10;97448.44;;;16.05;100.00
31771;BME280;18343;50.152;8.182;2023-05-23T03:43:05;97451.38;;;16.03;100.00
31771;BME280;18343;50.152;8.182;2023-05-23T03:45:50;97454.38;;;16.13;100.00
31771;BME280;18343;50.152;8.182;2023-05-23T03:48:35;97458.66;;;16.03;100.00
31771;BME280;18343;50.152;8.182;2023-05-23T03:51:19;97458.81;;;15.89;100.00
31771;BME280;18343;50.152;8.182;2023-05-23T03:54:04;97461.22;;;15.79;100.00
31771;BME280;18343;50.152;8.182;2023-05-23T03:56:50;97462.34;;;15.72;100.00
31771;BME280;18343;50.152;8.182;2023-05-23T03:59:35;97454.59;;;15.94;100.00
31771;BME280;18343;50.152;8.182;2023-05-23T04:02:19;97461.53;;;16.08;100.00
31771;BME280;18343;50.152;8.182;2023-05-23T04:05:05;97456.56;;;16.05;100.00
31771;BME280;18343;50.152;8.182;2023-05-23T04:07:50;97467.41;;;16.05;100.00
31771;BME280;18343;50.152;8.182;2023-05-23T04:10:34;97469.34;;;16.16;100.00
31771;BME280;18343;50.152;8.182;2023-05-23T04:13:20;97477.50;;;15.98;100.00
31771;BME280;18343;50.152;8.182;2023-05-23T04:16:06;97477.22;;;16.06;100.00
31771;BME280;18343;50.152;8.182;2023-05-23T04:18:51;97473.56;;;15.94;100.00
31771;BME280;18343;50.152;8.182;2023-05-23T04:21:39;97486.84;;;15.83;100.00
31771;BME280;18343;50.152;8.182;2023-05-23T04:24:24;97489.84;;;15.75;100.00
31771;BME280;18343;50.152;8.182;2023-05-23T04:27:09;97495.59;;;15.85;100.00
31771;BME280;18343;50.152;8.182;2023-05-23T04:29:56;97495.28;;;15.50;100.00
31771;BME280;18343;50.152;8.182;2023-05-23T04:32:42;97491.22;;;15.10;100.00
31771;BME280;18343;50.152;8.182;2023-05-23T04:35:27;97494.84;;;15.29;100.00
31771;BME280;18343;50.152;8.182;2023-05-23T04:38:13;97500.78;;;15.12;100.00
31771;BME280;18343;50.152;8.182;2023-05-23T04:40:57;97502.19;;;15.46;100.00
31771;BME280;18343;50.152;8.182;2023-05-23T04:43:43;97501.72;;;15.56;100.00
31771;BME280;18343;50.152;8.182;2023-05-23T04:46:30;97504.00;;;15.59;100.00
31771;BME280;18343;50.152;8.182;2023-05-23T04:49:16;97509.09;;;15.67;100.00
31771;BME280;18343;50.152;8.182;2023-05-23T04:52:01;97506.16;;;15.69;100.00
31771;BME280;18343;50.152;8.182;2023-05-23T04:54:47;97509.78;;;15.63;100.00
31771;BME280;18343;50.152;8.182;2023-05-23T04:57:31;97504.50;;;15.68;100.00
31771;BME280;18343;50.152;8.182;2023-05-23T05:00:17;97503.69;;;15.67;100.00
31771;BME280;18343;50.152;8.182;2023-05-23T05:03:03;97510.38;;;15.65;100.00
31771;BME280;18343;50.152;8.182;2023-05-23T05:05:48;97506.72;;;15.77;100.00
31771;BME280;18343;50.152;8.182;2023-05-23T05:08:33;97512.91;;;15.84;100.00
31771;BME280;18343;50.152;8.182;2023-05-23T05:11:17;97511.38;;;15.88;100.00
31771;BME280;18343;50.152;8.182;2023-05-23T05:14:02;97520.28;;;15.96;100.00
31771;BME280;18343;50.152;8.182;2023-05-23T05:16:46;97527.53;;;15.83;100.00
31771;BME280;18343;50.152;8.182;2023-05-23T05:19:32;97520.22;;;15.84;100.00
31771;BME280;18343;50.152;8.182;2023-05-23T05:22:17;97528.97;;;15.86;100.00
31771;BME280;18343;50.152;8.182;2023-05-23T05:25:06;97526.38;;;15.91;100.00
31771;BME280;18343;50.152;8.182;2023-05-23T05:27:51;97529.88;;;15.98;100.00
31771;BME280;18343;50.152;8.182;2023-05-23T05:30:35;97536.56;;;15.96;100.00
31771;BME280;18343;50.152;8.182;2023-05-23T05:33:20;97527.91;;;15.62;100.00
31771;BME280;18343;50.152;8.182;2023-05-23T05:36:09;97540.84;;;15.60;100.00
31771;BME280;18343;50.152;8.182;2023-05-23T05:38:54;97538.66;;;15.75;100.00
31771;BME280;18343;50.152;8.182;2023-05-23T05:41:39;97536.28;;;15.85;100.00
31771;BME280;18343;50.152;8.182;2023-05-23T05:44:24;97532.34;;;15.81;100.00
31771;BME280;18343;50.152;8.182;2023-05-23T05:47:08;97529.47;;;15.95;100.00
31771;BME280;18343;50.152;8.182;2023-05-23T05:49:55;97533.41;;;15.99;100.00
31771;BME280;18343;50.152;8.182;2023-05-23T05:52:41;97530.25;;;16.02;100.00
31771;BME280;18343;50.152;8.182;2023-05-23T05:55:26;97532.50;;;16.05;100.00
31771;BME280;18343;50.152;8.182;2023-05-23T05:58:10;97529.59;;;16.06;100.00
31771;BME280;18343;50.152;8.182;2023-05-23T06:00:56;97538.84;;;15.99;100.00
31771;BME280;18343;50.152;8.182;2023-05-23T06:03:41;97530.69;;;15.99;100.00
31771;BME280;18343;50.152;8.182;2023-05-23T06:06:26;97536.59;;;15.71;100.00
31771;BME280;18343;50.152;8.182;2023-05-23T06:09:14;97533.84;;;15.77;100.00
31771;BME280;18343;50.152;8.182;2023-05-23T06:12:00;97539.19;;;15.84;100.00
31771;BME280;18343;50.152;8.182;2023-05-23T06:14:45;97547.25;;;15.90;100.00
31771;BME280;18343;50.152;8.182;2023-05-23T06:17:29;97541.09;;;16.02;100.00
31771;BME280;18343;50.152;8.182;2023-05-23T06:20:14;97541.72;;;16.04;100.00
31771;BME280;18343;50.152;8.182;2023-05-23T06:22:59;97551.06;;;16.08;100.00
31771;BME280;18343;50.152;8.182;2023-05-23T06:25:49;97547.41;;;16.14;100.00
31771;BME280;18343;50.152;8.182;2023-05-23T06:28:34;97553.38;;;16.22;100.00
31771;BME280;18343;50.152;8.182;2023-05-23T06:31:21;97552.84;;;16.14;100.00
31771;BME280;18343;50.152;8.182;2023-05-23T06:34:06;97546.53;;;16.20;100.00
31771;BME280;18343;50.152;8.182;2023-05-23T06:36:52;97546.63;;;16.13;100.00
31771;BME280;18343;50.152;8.182;2023-05-23T06:39:40;97541.47;;;16.23;100.00
31771;BME280;18343;50.152;8.182;2023-05-23T06:42:26;97546.84;;;16.12;100.00
31771;BME280;18343;50.152;8.182;2023-05-23T06:45:11;97547.06;;;16.10;100.00
31771;BME280;18343;50.152;8.182;2023-05-23T06:47:55;97550.44;;;16.24;100.00
31771;BME280;18343;50.152;8.182;2023-05-23T06:50:40;97541.78;;;16.34;100.00
31771;BME280;18343;50.152;8.182;2023-05-23T06:53:25;97543.97;;;16.43;100.00
31771;BME280;18343;50.152;8.182;2023-05-23T06:56:09;97528.97;;;16.41;100.00
31771;BME280;18343;50.152;8.182;2023-05-23T06:58:58;97536.13;;;16.53;100.00
31771;BME280;18343;50.152;8.182;2023-05-23T07:01:42;97535.81;;;16.62;100.00
31771;BME280;18343;50.152;8.182;2023-05-23T07:04:27;97548.25;;;16.69;100.00
31771;BME280;18343;50.152;8.182;2023-05-23T07:07:12;97544.97;;;16.67;100.00
31771;BME280;18343;50.152;8.182;2023-05-23T07:09:57;97549.97;;;16.82;100.00
31771;BME280;18343;50.152;8.182;2023-05-23T07:12:41;97542.22;;;16.85;100.00
31771;BME280;18343;50.152;8.182;2023-05-23T07:15:27;97550.72;;;16.89;100.00
31771;BME280;18343;50.152;8.182;2023-05-23T07:18:13;97539.56;;;17.09;100.00
31771;BME280;18343;50.152;8.182;2023-05-23T07:20:57;97556.16;;;17.19;100.00
31771;BME280;18343;50.152;8.182;2023-05-23T07:23:42;97556.34;;;17.06;100.00
31771;BME280;18343;50.152;8.182;2023-05-23T07:26:26;97568.47;;;16.73;100.00
31771;BME280;18343;50.152;8.182;2023-05-23T07:29:11;97581.38;;;16.78;100.00
31771;BME280;18343;50.152;8.182;2023-05-23T07:31:59;97573.38;;;16.83;100.00
31771;BME280;18343;50.152;8.182;2023-05-23T07:34:43;97571.25;;;16.85;100.00
31771;BME280;18343;50.152;8.182;2023-05-23T07:37:28;97569.59;;;16.84;100.00
31771;BME280;18343;50.152;8.182;2023-05-23T07:40:13;97571.56;;;16.77;100.00
31771;BME280;18343;50.152;8.182;2023-05-23T07:42:58;97567.50;;;16.98;100.00
31771;BME280;18343;50.152;8.182;2023-05-23T07:45:42;97565.38;;;17.18;100.00
31771;BME280;18343;50.152;8.182;2023-05-23T07:48:28;97572.94;;;17.27;100.00
31771;BME280;18343;50.152;8.182;2023-05-23T07:51:13;97569.09;;;17.47;100.00
31771;BME280;18343;50.152;8.182;2023-05-23T07:53:58;97566.25;;;17.42;100.00
31771;BME280;18343;50.152;8.182;2023-05-23T07:56:42;97578.44;;;17.51;100.00
31771;BME280;18343;50.152;8.182;2023-05-23T07:59:27;97576.22;;;17.48;100.00
31771;BME280;18343;50.152;8.182;2023-05-23T08:02:12;97582.78;;;17.40;100.00
31771;BME280;18343;50.152;8.182;2023-05-23T08:04:58;97581.47;;;17.31;100.00
31771;BME280;18343;50.152;8.182;2023-05-23T08:07:42;97584.03;;;17.26;100.00
31771;BME280;18343;50.152;8.182;2023-05-23T08:10:27;97596.47;;;17.34;100.00
31771;BME280;18343;50.152;8.182;2023-05-23T08:13:15;97592.25;;;17.38;100.00
31771;BME280;18343;50.152;8.182;2023-05-23T08:15:59;97597.91;;;17.36;100.00
31771;BME280;18343;50.152;8.182;2023-05-23T08:18:44;97596.25;;;17.35;100.00
31771;BME280;18343;50.152;8.182;2023-05-23T08:21:30;97601.00;;;17.51;100.00
31771;BME280;18343;50.152;8.182;2023-05-23T08:24:14;97602.06;;;17.39;100.00
31771;BME280;18343;50.152;8.182;2023-05-23T08:26:59;97600.50;;;17.31;100.00
31771;BME280;18343;50.152;8.182;2023-05-23T08:29:43;97604.03;;;17.02;100.00
31771;BME280;18343;50.152;8.182;2023-05-23T08:32:28;97606.38;;;17.28;100.00
31771;BME280;18343;50.152;8.182;2023-05-23T08:35:13;97603.41;;;17.59;100.00
31771;BME280;18343;50.152;8.182;2023-05-23T08:37:59;97599.84;;;17.59;100.00
31771;BME280;18343;50.152;8.182;2023-05-23T08:40:49;97608.09;;;17.71;100.00
31771;BME280;18343;50.152;8.182;2023-05-23T08:43:34;97610.50;;;17.49;100.00
31771;BME280;18343;50.152;8.182;2023-05-23T08:46:19;97617.25;;;17.28;100.00
31771;BME280;18343;50.152;8.182;2023-05-23T08:49:07;97613.38;;;17.36;100.00
31771;BME280;18343;50.152;8.182;2023-05-23T08:51:53;97607.25;;;17.40;100.00
31771;BME280;18343;50.152;8.182;2023-05-23T08:54:41;97599.34;;;17.39;100.00
31771;BME280;18343;50.152;8.182;2023-05-23T08:57:26;97616.09;;;17.06;100.00
31771;BME280;18343;50.152;8.182;2023-05-23T09:00:15;97617.22;;;17.16;100.00
31771;BME280;18343;50.152;8.182;2023-05-23T09:03:01;97616.84;;;17.43;100.00
31771;BME280;18343;50.152;8.182;2023-05-23T09:05:46;97624.66;;;17.51;100.00
31771;BME280;18343;50.152;8.182;2023-05-23T09:08:31;97620.19;;;17.15;100.00
31771;BME280;18343;50.152;8.182;2023-05-23T09:11:18;97627.28;;;17.16;100.00
31771;BME280;18343;50.152;8.182;2023-05-23T09:14:03;97629.41;;;17.25;100.00
31771;BME280;18343;50.152;8.182;2023-05-23T09:16:47;97621.88;;;17.27;100.00
31771;BME280;18343;50.152;8.182;2023-05-23T09:19:32;97635.19;;;17.47;100.00
31771;BME280;18343;50.152;8.182;2023-05-23T09:22:23;97621.59;;;17.59;100.00
31771;BME280;18343;50.152;8.182;2023-05-23T09:25:08;97622.81;;;17.63;100.00
31771;BME280;18343;50.152;8.182;2023-05-23T09:27:55;97631.13;;;17.80;100.00
31771;BME280;18343;50.152;8.182;2023-05-23T09:30:40;97618.63;;;17.90;100.00
31771;BME280;18343;50.152;8.182;2023-05-23T09:33:33;97630.00;;;18.11;100.00
31771;BME280;18343;50.152;8.182;2023-05-23T09:36:18;97637.94;;;18.24;100.00
31771;BME280;18343;50.152;8.182;2023-05-23T09:39:03;97628.00;;;18.18;100.00
31771;BME280;18343;50.152;8.182;2023-05-23T09:41:49;97631.44;;;18.02;100.00
31771;BME280;18343;50.152;8.182;2023-05-23T09:44:40;97637.81;;;18.07;100.00
31771;BME280;18343;50.152;8.182;2023-05-23T09:47:25;97643.47;;;18.06;100.00
31771;BME280;18343;50.152;8.182;2023-05-23T09:50:12;97635.09;;;17.96;100.00
31771;BME280;18343;50.152;8.182;2023-05-23T09:52:57;97633.44;;;17.95;100.00
31771;BME280;18343;50.152;8.182;2023-05-23T09:55:41;97643.72;;;17.92;100.00
31771;BME280;18343;50.152;8.182;2023-05-23T09:58:27;97638.47;;;17.68;100.00
31771;BME280;18343;50.152;8.182;2023-05-23T10:01:15;97642.06;;;17.50;100.00
31771;BME280;18343;50.152;8.182;2023-05-23T10:04:04;97635.88;;;17.13;100.00
31771;BME280;18343;50.152;8.182;2023-05-23T10:06:52;97643.44;;;17.41;100.00
31771;BME280;18343;50.152;8.182;2023-05-23T10:09:39;97642.00;;;17.68;100.00
31771;BME280;18343;50.152;8.182;2023-05-23T10:12:46;97645.28;;;18.00;100.00
31771;BME280;18343;50.152;8.182;2023-05-23T10:15:38;97643.63;;;17.99;100.00
31771;BME280;18343;50.152;8.182;2023-05-23T10:18:29;97646.53;;;17.86;100.00
31771;BME280;18343;50.152;8.182;2023-05-23T10:21:21;97642.84;;;17.80;100.00
31771;BME280;18343;50.152;8.182;2023-05-23T10:24:07;97648.22;;;17.99;100.00
31771;BME280;18343;50.152;8.182;2023-05-23T10:26:52;97662.41;;;17.59;100.00
31771;BME280;18343;50.152;8.182;2023-05-23T10:29:37;97660.50;;;17.89;100.00
31771;BME280;18343;50.152;8.182;2023-05-23T10:32:23;97666.69;;;17.97;100.00
31771;BME280;18343;50.152;8.182;2023-05-23T10:35:18;97663.50;;;18.11;100.00
31771;BME280;18343;50.152;8.182;2023-05-23T10:38:11;97666.22;;;18.00;100.00
31771;BME280;18343;50.152;8.182;2023-05-23T10:41:07;97670.41;;;17.42;100.00
31771;BME280;18343;50.152;8.182;2023-05-23T10:44:01;97664.53;;;17.57;100.00
31771;BME280;18343;50.152;8.182;2023-05-23T10:46:52;97677.41;;;17.50;100.00
31771;BME280;18343;50.152;8.182;2023-05-23T10:49:39;97673.00;;;17.67;100.00
31771;BME280;18343;50.152;8.182;2023-05-23T10:52:25;97675.47;;;17.39;100.00
31771;BME280;18343;50.152;8.182;2023-05-23T10:55:15;97679.47;;;17.36;100.00
31771;BME280;18343;50.152;8.182;2023-05-23T10:58:10;97673.03;;;17.49;100.00
31771;BME280;18343;50.152;8.182;2023-05-23T11:00:59;97678.94;;;17.57;100.00
31771;BME280;18343;50.152;8.182;2023-05-23T11:03:50;97686.03;;;17.47;100.00
31771;BME280;18343;50.152;8.182;2023-05-23T11:06:38;97677.41;;;17.50;100.00
31771;BME280;18343;50.152;8.182;2023-05-23T11:09:24;97684.75;;;17.61;100.00
31771;BME280;18343;50.152;8.182;2023-05-23T11:12:13;97687.41;;;17.68;100.00
31771;BME280;18343;50.152;8.182;2023-05-23T11:15:01;97682.09;;;17.43;100.00
31771;BME280;18343;50.152;8.182;2023-05-23T11:17:51;97688.50;;;17.18;100.00
31771;BME280;18343;50.152;8.182;2023-05-23T11:20:36;97698.81;;;17.28;100.00
31771;BME280;18343;50.152;8.182;2023-05-23T11:23:23;97699.47;;;17.23;100.00
31771;BME280;18343;50.152;8.182;2023-05-23T11:26:30;97702.38;;;17.10;100.00
31771;BME280;18343;50.152;8.182;2023-05-23T11:29:15;97700.78;;;17.21;100.00
31771;BME280;18343;50.152;8.182;2023-05-23T11:32:07;97699.97;;;17.20;100.00
31771;BME280;18343;50.152;8.182;2023-05-23T11:34:53;97698.72;;;17.35;100.00
31771;BME280;18343;50.152;8.182;2023-05-23T11:37:39;97698.94;;;17.33;100.00
31771;BME280;18343;50.152;8.182;2023-05-23T11:40:32;97701.69;;;17.63;100.00
31771;BME280;18343;50.152;8.182;2023-05-23T11:43:18;97697.75;;;17.77;100.00
31771;BME280;18343;50.152;8.182;2023-05-23T11:46:07;97698.47;;;17.84;100.00
31771;BME280;18343;50.152;8.182;2023-05-23T11:48:52;97710.84;;;17.69;100.00
31771;BME280;18343;50.152;8.182;2023-05-23T11:51:38;97708.47;;;17.42;100.00
31771;BME280;18343;50.152;8.182;2023-05-23T11:54:23;97713.53;;;17.39;100.00
31771;BME280;18343;50.152;8.182;2023-05-23T11:57:08;97704.91;;;17.42;100.00
31771;BME280;18343;50.152;8.182;2023-05-23T11:59:55;97713.69;;;17.55;100.00
31771;BME280;18343;50.152;8.182;2023-05-23T12:02:41;97712.84;;;17.43;100.00
31771;BME280;18343;50.152;8.182;2023-05-23T12:05:28;97712.50;;;17.51;100.00
31771;BME280;18343;50.152;8.182;2023-05-23T12:08:13;97715.06;;;17.65;100.00
31771;BME280;18343;50.152;8.182;2023-05-23T12:10:59;97718.00;;;17.63;100.00
31771;BME280;18343;50.152;8.182;2023-05-23T12:13:44;97718.97;;;17.39;100.00
31771;BME280;18343;50.152;8.182;2023-05-23T12:16:30;97715.28;;;17.63;100.00
31771;BME280;18343;50.152;8.182;2023-05-23T12:19:16;97715.00;;;17.83;100.00
31771;BME280;18343;50.152;8.182;2023-05-23T12:22:05;97720.59;;;17.88;100.00
31771;BME280;18343;50.152;8.182;2023-05-23T12:24:52;97724.28;;;17.93;100.00
31771;BME280;18343;50.152;8.182;2023-05-23T12:27:40;97723.22;;;17.95;100.00
31771;BME280;18343;50.152;8.182;2023-05-23T12:30:26;97737.06;;;17.93;100.00
31771;BME280;18343;50.152;8.182;2023-05-23T12:33:12;97738.16;;;17.07;100.00
31771;BME280;18343;50.152;8.182;2023-05-23T12:35:56;97737.19;;;17.20;100.00
31771;BME280;18343;50.152;8.182;2023-05-23T12:38:42;97729.53;;;17.47;100.00
31771;BME280;18343;50.152;8.182;2023-05-23T12:41:27;97731.66;;;17.26;100.00
31771;BME280;18343;50.152;8.182;2023-05-23T12:44:15;97734.06;;;17.35;100.00
31771;BME280;18343;50.152;8.182;2023-05-23T12:47:01;97728.88;;;17.63;100.00
31771;BME280;18343;50.152;8.182;2023-05-23T12:49:47;97725.25;;;17.51;100.00
31771;BME280;18343;50.152;8.182;2023-05-23T12:52:31;97724.41;;;17.39;100.00
31771;BME280;18343;50.152;8.182;2023-05-23T12:55:19;97725.88;;;17.53;100.00
31771;BME280;18343;50.152;8.182;2023-05-23T12:58:04;97735.34;;;17.32;100.00
31771;BME280;18343;50.152;8.182;2023-05-23T13:00:49;97733.97;;;17.41;100.00
31771;BME280;18343;50.152;8.182;2023-05-23T13:03:34;97733.31;;;17.46;100.00
31771;BME280;18343;50.152;8.182;2023-05-23T13:06:20;97723.94;;;17.42;100.00
31771;BME280;18343;50.152;8.182;2023-05-23T13:09:04;97725.31;;;17.63;100.00
31771;BME280;18343;50.152;8.182;2023-05-23T13:11:49;97731.09;;;17.84;100.00
31771;BME280;18343;50.152;8.182;2023-05-23T13:14:34;97723.09;;;17.89;100.00
31771;BME280;18343;50.152;8.182;2023-05-23T13:17:20;97722.41;;;18.06;100.00
31771;BME280;18343;50.152;8.182;2023-05-23T13:20:06;97718.16;;;17.98;100.00
31771;BME280;18343;50.152;8.182;2023-05-23T13:22:55;97729.50;;;17.95;100.00
31771;BME280;18343;50.152;8.182;2023-05-23T13:25:45;97724.19;;;18.12;100.00
31771;BME280;18343;50.152;8.182;2023-05-23T13:28:30;97727.91;;;18.29;100.00
31771;BME280;18343;50.152;8.182;2023-05-23T13:31:15;97733.59;;;18.27;100.00
31771;BME280;18343;50.152;8.182;2023-05-23T13:34:00;97749.13;;;17.97;100.00
31771;BME280;18343;50.152;8.182;2023-05-23T13:36:45;97735.53;;;17.97;100.00
31771;BME280;18343;50.152;8.182;2023-05-23T13:39:35;97739.41;;;17.89;100.00
31771;BME280;18343;50.152;8.182;2023-05-23T13:42:20;97739.25;;;17.84;100.00
31771;BME280;18343;50.152;8.182;2023-05-23T13:45:06;97749.09;;;17.85;100.00
31771;BME280;18343;50.152;8.182;2023-05-23T13:47:51;97744.13;;;17.64;100.00
31771;BME280;18343;50.152;8.182;2023-05-23T13:50:36;97743.72;;;17.67;100.00
31771;BME280;18343;50.152;8.182;2023-05-23T13:53:21;97750.34;;;17.71;100.00
31771;BME280;18343;50.152;8.182;2023-05-23T13:56:06;97758.50;;;17.53;100.00
31771;BME280;18343;50.152;8.182;2023-05-23T13:58:51;97775.44;;;17.37;100.00
31771;BME280;18343;50.152;8.182;2023-05-23T14:01:36;97772.38;;;16.72;100.00
31771;BME280;18343;50.152;8.182;2023-05-23T14:04:21;97761.91;;;16.75;100.00
31771;BME280;18343;50.152;8.182;2023-05-23T14:07:06;97768.22;;;16.69;100.00
31771;BME280;18343;50.152;8.182;2023-05-23T14:09:52;97779.97;;;16.63;100.00
31771;BME280;18343;50.152;8.182;2023-05-23T14:12:38;97769.88;;;16.70;100.00
31771;BME280;18343;50.152;8.182;2023-05-23T14:15:23;97761.91;;;16.75;100.00
31771;BME280;18343;50.152;8.182;2023-05-23T14:18:08;97766.22;;;16.83;100.00
31771;BME280;18343;50.152;8.182;2023-05-23T14:20:52;97760.75;;;16.65;100.00
31771;BME280;18343;50.152;8.182;2023-05-23T14:23:37;97760.19;;;16.56;100.00
31771;BME280;18343;50.152;8.182;2023-05-23T14:26:22;97752.63;;;17.01;100.00
31771;BME280;18343;50.152;8.182;2023-05-23T14:29:08;97758.53;;;17.16;100.00